sensor_id;sensor_type;location;lat;lon;timestamp;pressure;altitude;pressure_sealevel;temperature;humidity
19890;BME280;10107;51.198;6.824;2023-05-21T00:00:54;-21692.31;;;14.30;100.00
19890;BME280;10107;51.198;6.824;2023-05-21T00:04:57;-21691.41;;;14.26;100.00
19890;BME280;10107;51.198;6.824;2023-05-21T00:08:59;-21690.47;;;14.22;100.00
19890;BME280;10107;51.198;6.824;2023-05-21T00:13:01;-21689.81;;;14.20;100.00
19890;BME280;10107;51.198;6.824;2023-05-21T00:17:03;-21689.28;;;14.18;100.00
19890;BME280;10107;51.198;6.824;2023-05-21T00:21:06;-21689.03;;;14.17;100.00
19890;BME280;10107;51.198;6.824;2023-05-21T00:25:09;-21688.50;;;14.15;100.00
19890;BME280;10107;51.198;6.824;2023-05-21T00:29:10;-21687.72;;;14.12;100.00
19890;BME280;10107;51.198;6.824;2023-05-21T00:33:12;-21686.91;;;14.09;100.00
19890;BME280;10107;51.198;6.824;2023-05-21T00:37:15;-21686.41;;;14.06;100.00
19890;BME280;10107;51.198;6.824;2023-05-21T00:41:17;-21686.00;;;14.05;100.00
19890;BME280;10107;51.198;6.824;2023-05-21T00:45:23;-21686.41;;;14.06;100.00
19890;BME280;10107;51.198;6.824;2023-05-21T00:49:27;-21685.34;;;14.02;100.00
19890;BME280;10107;51.198;6.824;2023-05-21T00:53:30;-21685.06;;;14.01;100.00
19890;BME280;10107;51.198;6.824;2023-05-21T00:57:34;-21684.28;;;13.98;100.00
19890;BME280;10107;51.198;6.824;2023-05-21T01:01:37;-21683.22;;;13.94;100.00
19890;BME280;10107;51.198;6.824;2023-05-21T01:05:38;-21681.91;;;13.89;100.00
19890;BME280;10107;51.198;6.824;2023-05-21T01:09:46;-21681.13;;;13.86;100.00
19890;BME280;10107;51.198;6.824;2023-05-21T01:13:48;-21680.19;;;13.82;100.00
19890;BME280;10107;51.198;6.824;2023-05-21T01:17:50;-21679.16;;;13.78;100.00
19890;BME280;10107;51.198;6.824;2023-05-21T01:21:56;-21677.03;;;13.70;100.00
19890;BME280;10107;51.198;6.824;2023-05-21T01:26:02;-21676.00;;;13.66;100.00
19890;BME280;10107;51.198;6.824;2023-05-21T01:30:05;-21674.53;;;13.60;100.00
19890;BME280;10107;51.198;6.824;2023-05-21T01:34:10;-21673.75;;;13.57;100.00
19890;BME280;10107;51.198;6.824;2023-05-21T01:38:16;-21672.16;;;13.51;100.00
19890;BME280;10107;51.198;6.824;2023-05-21T01:42:22;-21670.72;;;13.45;100.00
19890;BME280;10107;51.198;6.824;2023-05-21T01:46:26;-21669.94;;;13.42;100.00
19890;BME280;10107;51.198;6.824;2023-05-21T01:50:29;-21669.53;;;13.41;100.00
19890;BME280;10107;51.198;6.824;2023-05-21T01:54:31;-21668.88;;;13.38;100.00
19890;BME280;10107;51.198;6.824;2023-05-21T01:58:34;-21668.34;;;13.36;100.00
19890;BME280;10107;51.198;6.824;2023-05-21T02:02:36;-21667.94;;;13.35;100.00
19890;BME280;10107;51.198;6.824;2023-05-21T02:06:38;-21666.50;;;13.29;100.00
19890;BME280;10107;51.198;6.824;2023-05-21T02:10:41;-21666.22;;;13.28;100.00
19890;BME280;10107;51.198;6.824;2023-05-21T02:14:44;-21665.97;;;13.27;100.00
19890;BME280;10107;51.198;6.824;2023-05-21T02:18:49;-21666.09;;;13.27;100.00
19890;BME280;10107;51.198;6.824;2023-05-21T02:22:53;-21665.84;;;13.26;100.00
19890;BME280;10107;51.198;6.824;2023-05-21T02:26:55;-21665.31;;;13.24;100.00
19890;BME280;10107;51.198;6.824;2023-05-21T02:30:59;-21664.25;;;13.20;100.00
19890;BME280;10107;51.198;6.824;2023-05-21T02:35:02;-21663.72;;;13.18;100.00
19890;BME280;10107;51.198;6.824;2023-05-21T02:39:03;-21662.53;;;13.14;100.00
19890;BME280;10107;51.198;6.824;2023-05-21T02:43:05;-21662.28;;;13.13;100.00
19890;BME280;10107;51.198;6.824;2023-05-21T02:47:09;-21661.59;;;13.10;100.00
19890;BME280;10107;51.198;6.824;2023-05-21T02:51:11;-21660.69;;;13.06;100.00
19890;BME280;10107;51.198;6.824;2023-05-21T02:55:13;-21660.56;;;13.06;100.00
19890;BME280;10107;51.198;6.824;2023-05-21T02:59:15;-21660.03;;;13.04;100.00
19890;BME280;10107;51.198;6.824;2023-05-21T03:03:18;-21659.50;;;13.02;100.00
19890;BME280;10107;51.198;6.824;2023-05-21T03:07:20;-21658.84;;;12.99;100.00
19890;BME280;10107;51.198;6.824;2023-05-21T03:11:22;-21658.84;;;12.99;100.00
19890;BME280;10107;51.198;6.824;2023-05-21T03:15:23;-21658.72;;;12.99;100.00
19890;BME280;10107;51.198;6.824;2023-05-21T03:19:26;-21658.44;;;12.98;100.00
19890;BME280;10107;51.198;6.824;2023-05-21T03:23:29;-21657.78;;;12.95;100.00
19890;BME280;10107;51.198;6.824;2023-05-21T03:27:31;-21657.66;;;12.95;100.00
19890;BME280;10107;51.198;6.824;2023-05-21T03:31:36;-21658.03;;;12.96;100.00
19890;BME280;10107;51.198;6.824;2023-05-21T03:35:45;-21658.19;;;12.97;100.00
19890;BME280;10107;51.198;6.824;2023-05-21T03:39:47;-21658.31;;;12.97;100.00
19890;BME280;10107;51.198;6.824;2023-05-21T03:43:48;-21658.19;;;12.97;100.00
19890;BME280;10107;51.198;6.824;2023-05-21T03:47:51;-21657.38;;;12.94;100.00
19890;BME280;10107;51.198;6.824;2023-05-21T03:51:54;-21658.19;;;12.97;100.00
19890;BME280;10107;51.198;6.824;2023-05-21T03:55:57;-21658.03;;;12.96;100.00
19890;BME280;10107;51.198;6.824;2023-05-21T03:59:58;-21658.31;;;12.97;100.00
19890;BME280;10107;51.198;6.824;2023-05-21T04:04:00;-21659.25;;;13.01;100.00
19890;BME280;10107;51.198;6.824;2023-05-21T04:08:04;-21658.56;;;12.98;100.00
19890;BME280;10107;51.198;6.824;2023-05-21T04:12:06;-21659.50;;;13.02;100.00
19890;BME280;10107;51.198;6.824;2023-05-21T04:16:10;-21660.03;;;13.04;100.00
19890;BME280;10107;51.198;6.824;2023-05-21T04:20:14;-21660.81;;;13.07;100.00
19890;BME280;10107;51.198;6.824;2023-05-21T04:24:18;-21661.59;;;13.10;100.00
19890;BME280;10107;51.198;6.824;2023-05-21T04:28:31;-21663.84;;;13.19;100.00
19890;BME280;10107;51.198;6.824;2023-05-21T04:32:34;-21665.56;;;13.25;100.00
19890;BME280;10107;51.198;6.824;2023-05-21T04:36:37;-21667.69;;;13.34;100.00
19890;BME280;10107;51.198;6.824;2023-05-21T04:40:40;-21670.06;;;13.43;100.00
19890;BME280;10107;51.198;6.824;2023-05-21T04:44:42;-21671.09;;;13.47;100.00
19890;BME280;10107;51.198;6.824;2023-05-21T04:48:44;-21673.34;;;13.56;100.00
19890;BME280;10107;51.198;6.824;2023-05-21T04:52:46;-21674.94;;;13.62;100.00
19890;BME280;10107;51.198;6.824;2023-05-21T04:56:49;-21677.69;;;13.73;100.00
19890;BME280;10107;51.198;6.824;2023-05-21T05:00:51;-21680.19;;;13.82;100.00
19890;BME280;10107;51.198;6.824;2023-05-21T05:04:53;-21681.38;;;13.87;100.00
19890;BME280;10107;51.198;6.824;2023-05-21T05:08:56;-21681.91;;;13.89;100.00
19890;BME280;10107;51.198;6.824;2023-05-21T05:12:59;-21682.97;;;13.93;100.00
19890;BME280;10107;51.198;6.824;2023-05-21T05:17:03;-21685.72;;;14.04;100.00
19890;BME280;10107;51.198;6.824;2023-05-21T05:21:07;-21688.38;;;14.14;100.00
19890;BME280;10107;51.198;6.824;2023-05-21T05:25:09;-21689.81;;;14.20;100.00
19890;BME280;10107;51.198;6.824;2023-05-21T05:29:12;-21692.72;;;14.31;100.00
19890;BME280;10107;51.198;6.824;2023-05-21T05:33:13;-21696.94;;;14.48;100.00
19890;BME280;10107;51.198;6.824;2023-05-21T05:37:16;-21701.28;;;14.64;100.00
19890;BME280;10107;51.198;6.824;2023-05-21T05:41:17;-21704.16;;;14.76;100.00
19890;BME280;10107;51.198;6.824;2023-05-21T05:45:22;-21705.63;;;14.81;100.00
19890;BME280;10107;51.198;6.824;2023-05-21T05:49:26;-21707.31;;;14.88;100.00
19890;BME280;10107;51.198;6.824;2023-05-21T05:53:28;-21710.88;;;15.02;100.00
19890;BME280;10107;51.198;6.824;2023-05-21T05:57:31;-21713.63;;;15.13;100.00
19890;BME280;10107;51.198;6.824;2023-05-21T06:01:38;-21715.88;;;15.21;100.00
19890;BME280;10107;51.198;6.824;2023-05-21T06:05:42;-21721.13;;;15.42;100.00
19890;BME280;10107;51.198;6.824;2023-05-21T06:09:44;-21727.56;;;15.67;100.00
19890;BME280;10107;51.198;6.824;2023-05-21T06:13:46;-21731.38;;;15.82;98.58
19890;BME280;10107;51.198;6.824;2023-05-21T06:17:51;-21739.25;;;16.13;96.83
19890;BME280;10107;51.198;6.824;2023-05-21T06:21:53;-21744.63;;;16.34;94.64
19890;BME280;10107;51.198;6.824;2023-05-21T06:25:54;-21754.47;;;16.72;92.24
19890;BME280;10107;51.198;6.824;2023-05-21T06:29:57;-21763.53;;;17.08;88.76
19890;BME280;10107;51.198;6.824;2023-05-21T06:34:00;-21777.53;;;17.62;84.87
19890;BME280;10107;51.198;6.824;2023-05-21T06:38:02;-21775.44;;;17.54;85.39
19890;BME280;10107;51.198;6.824;2023-05-21T06:42:04;-21794.03;;;18.27;83.23
19890;BME280;10107;51.198;6.824;2023-05-21T06:46:29;-21841.69;;;20.14;71.24
19890;BME280;10107;51.198;6.824;2023-05-21T06:50:32;-21875.66;;;21.48;64.56
19890;BME280;10107;51.198;6.824;2023-05-21T06:54:34;-21883.59;;;21.80;62.53
19890;BME280;10107;51.198;6.824;2023-05-21T06:58:36;-21897.09;;;22.33;59.21
19890;BME280;10107;51.198;6.824;2023-05-21T07:02:38;-21913.97;;;23.00;56.79
19890;BME280;10107;51.198;6.824;2023-05-21T07:06:41;-21918.91;;;23.19;55.00
19890;BME280;10107;51.198;6.824;2023-05-21T07:10:43;-21919.28;;;23.21;53.96
19890;BME280;10107;51.198;6.824;2023-05-21T07:14:45;-21882.41;;;21.75;58.57
19890;BME280;10107;51.198;6.824;2023-05-21T07:18:47;-21857.31;;;20.76;64.82
19890;BME280;10107;51.198;6.824;2023-05-21T07:22:50;-21879.19;;;21.62;60.88
19890;BME280;10107;51.198;6.824;2023-05-21T07:26:52;-21963.78;;;24.97;49.78
19890;BME280;10107;51.198;6.824;2023-05-21T07:30:54;-22011.88;;;26.89;43.70
19890;BME280;10107;51.198;6.824;2023-05-21T07:35:02;-22032.47;;;27.71;41.75
19890;BME280;10107;51.198;6.824;2023-05-21T07:39:06;-22029.25;;;27.58;41.59
19890;BME280;10107;51.198;6.824;2023-05-21T07:43:08;-22032.34;;;27.70;41.16
19890;BME280;10107;51.198;6.824;2023-05-21T07:47:12;-22039.41;;;27.98;40.16
19890;BME280;10107;51.198;6.824;2023-05-21T07:51:14;-22015.75;;;27.04;42.15
19890;BME280;10107;51.198;6.824;2023-05-21T07:55:17;-22035.94;;;27.84;41.00
19890;BME280;10107;51.198;6.824;2023-05-21T07:59:20;-22025.53;;;27.43;41.77
19890;BME280;10107;51.198;6.824;2023-05-21T08:03:22;-22018.19;;;27.14;42.58
19890;BME280;10107;51.198;6.824;2023-05-21T08:07:24;-21995.28;;;26.22;44.26
19890;BME280;10107;51.198;6.824;2023-05-21T08:11:28;-21963.03;;;24.94;47.78
19890;BME280;10107;51.198;6.824;2023-05-21T08:15:30;-21949.97;;;24.42;49.85
19890;BME280;10107;51.198;6.824;2023-05-21T08:19:31;-21967.16;;;25.10;49.28
19890;BME280;10107;51.198;6.824;2023-05-21T08:23:33;-21987.28;;;25.91;46.93
19890;BME280;10107;51.198;6.824;2023-05-21T08:27:36;-22000.56;;;26.43;44.83
19890;BME280;10107;51.198;6.824;2023-05-21T08:31:38;-22016.53;;;27.07;44.57
19890;BME280;10107;51.198;6.824;2023-05-21T08:35:41;-22022.31;;;27.30;42.45
19890;BME280;10107;51.198;6.824;2023-05-21T08:39:50;-22058.28;;;28.74;40.50
19890;BME280;10107;51.198;6.824;2023-05-21T08:43:55;-22073.66;;;29.35;37.81
19890;BME280;10107;51.198;6.824;2023-05-21T08:48:01;-22061.84;;;28.88;38.70
19890;BME280;10107;51.198;6.824;2023-05-21T08:52:07;-22068.00;;;29.13;38.69
19890;BME280;10107;51.198;6.824;2023-05-21T08:56:09;-22067.50;;;29.11;38.58
19890;BME280;10107;51.198;6.824;2023-05-21T09:00:21;-22086.31;;;29.86;38.50
19890;BME280;10107;51.198;6.824;2023-05-21T09:04:26;-22063.13;;;28.93;38.68
19890;BME280;10107;51.198;6.824;2023-05-21T09:08:30;-22059.81;;;28.80;40.90
19890;BME280;10107;51.198;6.824;2023-05-21T09:12:58;-22057.38;;;28.70;40.27
19890;BME280;10107;51.198;6.824;2023-05-21T09:17:02;-22057.88;;;28.72;40.20
19890;BME280;10107;51.198;6.824;2023-05-21T09:21:21;-22073.50;;;29.35;38.49
19890;BME280;10107;51.198;6.824;2023-05-21T09:25:25;-22100.13;;;30.42;37.65
19890;BME280;10107;51.198;6.824;2023-05-21T09:29:29;-22124.25;;;31.38;35.17
19890;BME280;10107;51.198;6.824;2023-05-21T09:33:32;-22129.59;;;31.60;34.06
19890;BME280;10107;51.198;6.824;2023-05-21T09:37:38;-22134.97;;;31.82;34.71
19890;BME280;10107;51.198;6.824;2023-05-21T09:41:41;-22146.81;;;32.29;33.29
19890;BME280;10107;51.198;6.824;2023-05-21T09:45:49;-22150.25;;;32.43;33.98
19890;BME280;10107;51.198;6.824;2023-05-21T09:49:59;-22138.13;;;31.94;34.22
19890;BME280;10107;51.198;6.824;2023-05-21T09:54:00;-22123.34;;;31.35;34.81
19890;BME280;10107;51.198;6.824;2023-05-21T09:58:03;-22096.28;;;30.26;37.06
19890;BME280;10107;51.198;6.824;2023-05-21T10:02:15;-22063.91;;;28.96;40.06
19890;BME280;10107;51.198;6.824;2023-05-21T10:06:19;-22043.91;;;28.16;41.95
19890;BME280;10107;51.198;6.824;2023-05-21T10:10:22;-22045.19;;;28.21;42.03
19890;BME280;10107;51.198;6.824;2023-05-21T10:14:26;-22049.66;;;28.39;41.64
19890;BME280;10107;51.198;6.824;2023-05-21T10:18:31;-22054.81;;;28.60;41.03
19890;BME280;10107;51.198;6.824;2023-05-21T10:22:35;-22069.28;;;29.18;40.72
19890;BME280;10107;51.198;6.824;2023-05-21T10:26:38;-22091.19;;;30.06;38.71
19890;BME280;10107;51.198;6.824;2023-05-21T10:30:42;-22087.34;;;29.90;39.00
19890;BME280;10107;51.198;6.824;2023-05-21T10:34:58;-22095.13;;;30.21;38.22
19890;BME280;10107;51.198;6.824;2023-05-21T10:39:10;-22129.34;;;31.59;35.95
19890;BME280;10107;51.198;6.824;2023-05-21T10:43:42;-22153.28;;;32.55;34.00
19890;BME280;10107;51.198;6.824;2023-05-21T10:48:01;-22148.06;;;32.34;33.84
19890;BME280;10107;51.198;6.824;2023-05-21T10:52:18;-22173.63;;;33.38;33.14
19890;BME280;10107;51.198;6.824;2023-05-21T10:56:31;-22164.59;;;33.01;33.10
19890;BME280;10107;51.198;6.824;2023-05-21T11:00:37;-22158.88;;;32.78;33.27
19890;BME280;10107;51.198;6.824;2023-05-21T11:04:39;-22155.31;;;32.64;33.86
19890;BME280;10107;51.198;6.824;2023-05-21T11:08:46;-22139.53;;;32.00;34.48
19890;BME280;10107;51.198;6.824;2023-05-21T11:17:38;-22109.69;;;30.80;37.22
19890;BME280;10107;51.198;6.824;2023-05-21T11:21:41;-22113.03;;;30.93;37.36
19890;BME280;10107;51.198;6.824;2023-05-21T11:25:43;-22125.91;;;31.45;36.09
19890;BME280;10107;51.198;6.824;2023-05-21T11:29:44;-22102.56;;;30.51;37.44
19890;BME280;10107;51.198;6.824;2023-05-21T11:34:07;-22079.16;;;29.57;39.49
19890;BME280;10107;51.198;6.824;2023-05-21T11:38:09;-22069.81;;;29.20;40.53
19890;BME280;10107;51.198;6.824;2023-05-21T11:42:10;-22109.06;;;30.77;38.74
19890;BME280;10107;51.198;6.824;2023-05-21T11:46:12;-22144.50;;;32.20;36.16
19890;BME280;10107;51.198;6.824;2023-05-21T11:50:16;-22147.69;;;32.33;35.23
19890;BME280;10107;51.198;6.824;2023-05-21T11:54:18;-22137.88;;;31.93;35.50
19890;BME280;10107;51.198;6.824;2023-05-21T11:58:20;-22128.84;;;31.57;35.97
19890;BME280;10107;51.198;6.824;2023-05-21T12:02:21;-22122.59;;;31.32;36.52
19890;BME280;10107;51.198;6.824;2023-05-21T12:06:26;-22127.69;;;31.52;36.26
19890;BME280;10107;51.198;6.824;2023-05-21T12:10:30;-22117.75;;;31.12;37.26
19890;BME280;10107;51.198;6.824;2023-05-21T12:14:33;-22112.66;;;30.92;37.56
19890;BME280;10107;51.198;6.824;2023-05-21T12:18:35;-22090.03;;;30.01;39.33
19890;BME280;10107;51.198;6.824;2023-05-21T12:22:40;-22089.25;;;29.98;39.34
19890;BME280;10107;51.198;6.824;2023-05-21T12:26:43;-22071.84;;;29.28;40.12
19890;BME280;10107;51.198;6.824;2023-05-21T12:30:45;-22063.00;;;28.93;41.20
19890;BME280;10107;51.198;6.824;2023-05-21T12:34:48;-22065.06;;;29.01;42.10
19890;BME280;10107;51.198;6.824;2023-05-21T12:38:52;-22072.25;;;29.30;41.65
19890;BME280;10107;51.198;6.824;2023-05-21T12:42:53;-22074.94;;;29.40;41.21
19890;BME280;10107;51.198;6.824;2023-05-21T12:46:55;-22074.66;;;29.39;41.37
19890;BME280;10107;51.198;6.824;2023-05-21T12:50:57;-22068.91;;;29.16;42.44
19890;BME280;10107;51.198;6.824;2023-05-21T12:55:00;-22064.03;;;28.97;44.31
19890;BME280;10107;51.198;6.824;2023-05-21T12:59:02;-22069.28;;;29.18;42.66
19890;BME280;10107;51.198;6.824;2023-05-21T13:03:04;-22073.13;;;29.33;43.12
19890;BME280;10107;51.198;6.824;2023-05-21T13:07:06;-22073.25;;;29.34;42.90
19890;BME280;10107;51.198;6.824;2023-05-21T13:11:09;-22075.06;;;29.41;43.48
19890;BME280;10107;51.198;6.824;2023-05-21T13:15:11;-22064.41;;;28.98;41.94
19890;BME280;10107;51.198;6.824;2023-05-21T13:19:14;-22055.06;;;28.61;42.84
19890;BME280;10107;51.198;6.824;2023-05-21T13:23:16;-22044.41;;;28.18;44.49
19890;BME280;10107;51.198;6.824;2023-05-21T13:27:19;-22038.00;;;27.93;46.32
19890;BME280;10107;51.198;6.824;2023-05-21T13:31:20;-22038.50;;;27.95;46.59
19890;BME280;10107;51.198;6.824;2023-05-21T13:35:22;-22014.59;;;26.99;47.83
19890;BME280;10107;51.198;6.824;2023-05-21T13:39:24;-22013.81;;;26.96;49.36
19890;BME280;10107;51.198;6.824;2023-05-21T13:43:28;-22027.31;;;27.50;48.00
19890;BME280;10107;51.198;6.824;2023-05-21T13:47:31;-22034.41;;;27.78;48.18
19890;BME280;10107;51.198;6.824;2023-05-21T13:51:32;-22031.81;;;27.68;47.74
19890;BME280;10107;51.198;6.824;2023-05-21T13:55:34;-22033.88;;;27.76;46.08
19890;BME280;10107;51.198;6.824;2023-05-21T13:59:37;-22027.97;;;27.53;47.43
19890;BME280;10107;51.198;6.824;2023-05-21T14:03:39;-22028.34;;;27.54;48.94
19890;BME280;10107;51.198;6.824;2023-05-21T14:07:41;-22032.59;;;27.71;48.36
19890;BME280;10107;51.198;6.824;2023-05-21T14:11:43;-22033.22;;;27.74;48.81
19890;BME280;10107;51.198;6.824;2023-05-21T14:15:46;-22021.28;;;27.26;49.65
19890;BME280;10107;51.198;6.824;2023-05-21T14:19:48;-22015.38;;;27.02;50.58
19890;BME280;10107;51.198;6.824;2023-05-21T14:23:50;-22023.84;;;27.36;51.23
19890;BME280;10107;51.198;6.824;2023-05-21T14:27:53;-22029.38;;;27.58;49.48
19890;BME280;10107;51.198;6.824;2023-05-21T14:31:56;-22033.88;;;27.76;47.95
19890;BME280;10107;51.198;6.824;2023-05-21T14:35:57;-22023.84;;;27.36;48.89
19890;BME280;10107;51.198;6.824;2023-05-21T14:39:59;-22023.47;;;27.35;48.99
19890;BME280;10107;51.198;6.824;2023-05-21T14:44:01;-22018.44;;;27.15;49.65
19890;BME280;10107;51.198;6.824;2023-05-21T14:48:04;-22016.00;;;27.05;50.23
19890;BME280;10107;51.198;6.824;2023-05-21T14:52:08;-22005.84;;;26.64;52.60
19890;BME280;10107;51.198;6.824;2023-05-21T14:56:09;-21991.41;;;26.07;54.22
19890;BME280;10107;51.198;6.824;2023-05-21T15:00:12;-21995.78;;;26.24;55.59
19890;BME280;10107;51.198;6.824;2023-05-21T15:04:15;-21998.38;;;26.35;54.18
19890;BME280;10107;51.198;6.824;2023-05-21T15:08:17;-22005.06;;;26.61;53.34
19890;BME280;10107;51.198;6.824;2023-05-21T15:12:19;-21999.53;;;26.39;53.77
19890;BME280;10107;51.198;6.824;2023-05-21T15:16:21;-21995.66;;;26.24;54.45
19890;BME280;10107;51.198;6.824;2023-05-21T15:20:24;-22001.59;;;26.47;54.46
19890;BME280;10107;51.198;6.824;2023-05-21T15:24:26;-21998.13;;;26.34;54.36
19890;BME280;10107;51.198;6.824;2023-05-21T15:28:27;-22000.16;;;26.42;54.61
19890;BME280;10107;51.198;6.824;2023-05-21T15:32:29;-22002.09;;;26.50;53.99
19890;BME280;10107;51.198;6.824;2023-05-21T15:36:32;-21998.88;;;26.37;54.45
19890;BME280;10107;51.198;6.824;2023-05-21T15:40:34;-21992.56;;;26.12;56.38
19890;BME280;10107;51.198;6.824;2023-05-21T15:44:35;-21992.69;;;26.12;57.34
19890;BME280;10107;51.198;6.824;2023-05-21T15:48:37;-21987.41;;;25.91;57.00
19890;BME280;10107;51.198;6.824;2023-05-21T15:52:40;-21981.75;;;25.68;57.73
19890;BME280;10107;51.198;6.824;2023-05-21T15:56:43;-21976.59;;;25.48;58.63
19890;BME280;10107;51.198;6.824;2023-05-21T16:00:45;-21976.59;;;25.48;58.87
19890;BME280;10107;51.198;6.824;2023-05-21T16:04:46;-21979.41;;;25.59;59.56
19890;BME280;10107;51.198;6.824;2023-05-21T16:08:50;-21977.63;;;25.52;58.32
19890;BME280;10107;51.198;6.824;2023-05-21T16:12:52;-21974.13;;;25.38;60.00
19890;BME280;10107;51.198;6.824;2023-05-21T16:16:53;-21972.06;;;25.30;60.15
19890;BME280;10107;51.198;6.824;2023-05-21T16:20:55;-21971.69;;;25.28;59.57
19890;BME280;10107;51.198;6.824;2023-05-21T16:24:58;-21967.66;;;25.13;60.22
19890;BME280;10107;51.198;6.824;2023-05-21T16:29:00;-21961.09;;;24.86;60.33
19890;BME280;10107;51.198;6.824;2023-05-21T16:33:01;-21955.78;;;24.65;61.61
19890;BME280;10107;51.198;6.824;2023-05-21T16:37:04;-21951.25;;;24.47;62.01
19890;BME280;10107;51.198;6.824;2023-05-21T16:41:09;-21951.66;;;24.49;62.40
19890;BME280;10107;51.198;6.824;2023-05-21T16:45:11;-21949.72;;;24.41;62.83
19890;BME280;10107;51.198;6.824;2023-05-21T16:49:18;-21947.75;;;24.34;63.70
19890;BME280;10107;51.198;6.824;2023-05-21T16:53:20;-21948.41;;;24.36;64.07
19890;BME280;10107;51.198;6.824;2023-05-21T16:57:23;-21945.44;;;24.24;64.38
19890;BME280;10107;51.198;6.824;2023-05-21T17:01:25;-21944.78;;;24.22;65.38
19890;BME280;10107;51.198;6.824;2023-05-21T17:05:26;-21944.41;;;24.20;65.42
19890;BME280;10107;51.198;6.824;2023-05-21T17:09:28;-21945.44;;;24.24;65.56
19890;BME280;10107;51.198;6.824;2023-05-21T17:13:33;-21946.72;;;24.29;65.10
19890;BME280;10107;51.198;6.824;2023-05-21T17:17:34;-21947.75;;;24.34;65.29
19890;BME280;10107;51.198;6.824;2023-05-21T17:21:36;-21946.72;;;24.29;65.67
19890;BME280;10107;51.198;6.824;2023-05-21T17:25:38;-21942.22;;;24.11;66.29
19890;BME280;10107;51.198;6.824;2023-05-21T17:29:41;-21938.97;;;23.99;67.29
19890;BME280;10107;51.198;6.824;2023-05-21T17:33:42;-21934.81;;;23.82;68.55
19890;BME280;10107;51.198;6.824;2023-05-21T17:37:45;-21930.69;;;23.66;68.17
19890;BME280;10107;51.198;6.824;2023-05-21T17:41:47;-21928.09;;;23.56;68.93
19890;BME280;10107;51.198;6.824;2023-05-21T17:45:51;-21924.72;;;23.42;69.83
19890;BME280;10107;51.198;6.824;2023-05-21T17:49:52;-21921.63;;;23.30;70.92
19890;BME280;10107;51.198;6.824;2023-05-21T17:53:54;-21919.53;;;23.22;71.67
19890;BME280;10107;51.198;6.824;2023-05-21T17:57:57;-21919.81;;;23.23;72.43
19890;BME280;10107;51.198;6.824;2023-05-21T18:02:00;-21919.03;;;23.20;76.01
19890;BME280;10107;51.198;6.824;2023-05-21T18:06:02;-21915.91;;;23.07;82.15
19890;BME280;10107;51.198;6.824;2023-05-21T18:10:04;-21908.13;;;22.77;89.95
19890;BME280;10107;51.198;6.824;2023-05-21T18:14:06;-21898.00;;;22.37;96.36
19890;BME280;10107;51.198;6.824;2023-05-21T18:18:09;-21887.50;;;21.95;100.00
19890;BME280;10107;51.198;6.824;2023-05-21T18:22:16;-21877.47;;;21.55;100.00
19890;BME280;10107;51.198;6.824;2023-05-21T18:26:18;-21869.94;;;21.26;100.00
19890;BME280;10107;51.198;6.824;2023-05-21T18:30:20;-21864.88;;;21.06;100.00
19890;BME280;10107;51.198;6.824;2023-05-21T18:34:23;-21860.97;;;20.90;100.00
19890;BME280;10107;51.198;6.824;2023-05-21T18:38:25;-21859.41;;;20.84;100.00
19890;BME280;10107;51.198;6.824;2023-05-21T18:42:27;-21859.28;;;20.84;100.00
19890;BME280;10107;51.198;6.824;2023-05-21T18:46:28;-21859.53;;;20.85;100.00
19890;BME280;10107;51.198;6.824;2023-05-21T18:50:32;-21859.66;;;20.85;100.00
19890;BME280;10107;51.198;6.824;2023-05-21T18:54:36;-21857.56;;;20.77;100.00
19890;BME280;10107;51.198;6.824;2023-05-21T18:58:37;-21854.97;;;20.67;100.00
19890;BME280;10107;51.198;6.824;2023-05-21T19:02:39;-21852.63;;;20.57;100.00
19890;BME280;10107;51.198;6.824;2023-05-21T19:06:43;-21848.06;;;20.40;100.00
19890;BME280;10107;51.198;6.824;2023-05-21T19:10:45;-21842.06;;;20.16;100.00
19890;BME280;10107;51.198;6.824;2023-05-21T19:14:47;-21838.56;;;20.02;100.00
19890;BME280;10107;51.198;6.824;2023-05-21T19:18:49;-21835.94;;;19.92;100.00
19890;BME280;10107;51.198;6.824;2023-05-21T19:22:53;-21833.72;;;19.83;100.00
19890;BME280;10107;51.198;6.824;2023-05-21T19:26:55;-21831.13;;;19.73;100.00
19890;BME280;10107;51.198;6.824;2023-05-21T19:30:56;-21829.44;;;19.66;100.00
19890;BME280;10107;51.198;6.824;2023-05-21T19:34:58;-21827.06;;;19.57;100.00
19890;BME280;10107;51.198;6.824;2023-05-21T19:39:02;-21824.72;;;19.48;100.00
19890;BME280;10107;51.198;6.824;2023-05-21T19:43:04;-21824.34;;;19.46;100.00
19890;BME280;10107;51.198;6.824;2023-05-21T19:47:06;-21824.19;;;19.46;100.00
19890;BME280;10107;51.198;6.824;2023-05-21T19:51:08;-21824.34;;;19.46;100.00
19890;BME280;10107;51.198;6.824;2023-05-21T19:55:11;-21823.16;;;19.42;100.00
19890;BME280;10107;51.198;6.824;2023-05-21T19:59:13;-21822.00;;;19.37;100.00
19890;BME280;10107;51.198;6.824;2023-05-21T20:03:15;-21820.69;;;19.32;100.00
19890;BME280;10107;51.198;6.824;2023-05-21T20:07:17;-21820.41;;;19.31;100.00
19890;BME280;10107;51.198;6.824;2023-05-21T20:11:20;-21819.13;;;19.26;100.00
19890;BME280;10107;51.198;6.824;2023-05-21T20:15:22;-21818.34;;;19.23;100.00
19890;BME280;10107;51.198;6.824;2023-05-21T20:19:24;-21818.47;;;19.23;100.00
19890;BME280;10107;51.198;6.824;2023-05-21T20:23:26;-21818.34;;;19.23;100.00
19890;BME280;10107;51.198;6.824;2023-05-21T20:27:29;-21818.34;;;19.23;100.00
19890;BME280;10107;51.198;6.824;2023-05-21T20:31:31;-21818.06;;;19.22;100.00
19890;BME280;10107;51.198;6.824;2023-05-21T20:35:32;-21817.81;;;19.21;100.00
19890;BME280;10107;51.198;6.824;2023-05-21T20:39:34;-21818.84;;;19.25;100.00
19890;BME280;10107;51.198;6.824;2023-05-21T20:43:38;-21818.97;;;19.25;100.00
19890;BME280;10107;51.198;6.824;2023-05-21T20:47:39;-21819.13;;;19.26;100.00
19890;BME280;10107;51.198;6.824;2023-05-21T20:51:41;-21818.97;;;19.25;100.00
19890;BME280;10107;51.198;6.824;2023-05-21T20:55:43;-21818.34;;;19.23;100.00
19890;BME280;10107;51.198;6.824;2023-05-21T20:59:47;-21816.78;;;19.16;100.00
19890;BME280;10107;51.198;6.824;2023-05-21T21:03:49;-21815.84;;;19.13;100.00
19890;BME280;10107;51.198;6.824;2023-05-21T21:07:51;-21814.81;;;19.09;100.00